Time;durP1;ratioP1;P1;durP2;ratioP2;P2;SDS_P1;SDS_P2;PMS_P1;PMS_P2;Temp;Humidity;BMP_temperature;BMP_pressure;BME280_temperature;BME280_humidity;BME280_pressure;Samples;Min_cycle;Max_cycle;Signal;HPM_P1;HPM_P2
2022/03/29 00:02:16;;;;;;;0.10;0.10;;;8.40;1.00;226.50;231333.00;;;;5030765;28;20199;-74
2022/03/29 00:04:45;;;;;;;0.10;0.10;;;8.40;1.00;226.50;231333.00;;;;5031107;28;20704;-74
2022/03/29 00:07:13;;;;;;;0.10;0.10;;;8.30;1.00;226.50;231333.00;;;;5032291;28;20648;-74
2022/03/29 00:09:41;;;;;;;0.10;0.10;;;8.30;1.00;226.50;231333.00;;;;5031488;28;20234;-74
2022/03/29 00:12:10;;;;;;;0.03;0.03;;;8.20;1.00;226.50;231333.00;;;;5030495;28;20703;-73
2022/03/29 00:14:38;;;;;;;0.10;0.10;;;8.10;1.00;226.50;231333.00;;;;5025272;28;20214;-74
2022/03/29 00:17:06;;;;;;;0.10;0.10;;;8.20;1.00;226.50;231333.00;;;;5029372;28;20205;-73
2022/03/29 00:19:34;;;;;;;0.10;0.10;;;8.00;1.00;226.50;231333.00;;;;5028670;28;20195;-72
2022/03/29 00:22:04;;;;;;;0.10;0.10;;;8.00;1.00;226.50;231333.00;;;;5028269;28;20206;-72
2022/03/29 00:24:32;;;;;;;0.10;0.10;;;8.00;1.00;226.50;231333.00;;;;5042654;28;20219;-73
2022/03/29 00:27:00;;;;;;;0.10;0.10;;;7.80;1.00;226.50;231333.00;;;;5028561;28;20226;-73
2022/03/29 00:29:28;;;;;;;0.10;0.10;;;7.80;1.00;226.50;231333.00;;;;5028444;28;20675;-73
2022/03/29 00:31:56;;;;;;;0.08;0.08;;;7.90;1.00;226.50;231333.00;;;;5038216;28;20615;-74
2022/03/29 00:34:24;;;;;;;0.10;0.10;;;7.80;1.00;226.50;231333.00;;;;5029137;28;20239;-73
2022/03/29 00:36:53;;;;;;;0.10;0.10;;;7.90;1.00;226.50;231333.00;;;;5029003;28;20202;-73
2022/03/29 00:39:22;;;;;;;0.10;0.10;;;7.80;1.00;226.50;231333.00;;;;5028001;28;20207;-73
2022/03/29 00:41:51;;;;;;;0.00;0.00;;;7.90;1.00;226.50;231333.00;;;;5027053;28;20199;-73
2022/03/29 00:44:19;;;;;;;0.10;0.10;;;7.90;1.00;226.50;231333.00;;;;5028206;28;20233;-72
2022/03/29 00:46:47;;;;;;;0.00;0.00;;;7.70;1.00;226.50;231333.00;;;;5027886;28;20217;-72
2022/03/29 00:49:16;;;;;;;0.10;0.10;;;7.50;1.00;226.50;231333.00;;;;5028790;28;20200;-72
2022/03/29 00:51:44;;;;;;;0.00;0.00;;;7.50;1.00;226.50;231333.00;;;;5027360;28;20678;-72
2022/03/29 00:54:14;;;;;;;0.10;0.10;;;7.50;1.00;226.50;231333.00;;;;5035804;28;20219;-72
2022/03/29 00:56:43;;;;;;;0.08;0.08;;;7.30;1.00;226.50;231333.00;;;;5036306;28;20634;-72
2022/03/29 00:59:12;;;;;;;0.10;0.10;;;7.20;1.00;226.50;231333.00;;;;5035347;28;20226;-72
2022/03/29 01:01:40;;;;;;;0.10;0.10;;;7.30;1.00;226.50;231333.00;;;;5034509;28;20309;-72
2022/03/29 01:04:08;;;;;;;0.10;0.10;;;7.40;1.00;226.50;231333.00;;;;5031632;28;20246;-73
2022/03/29 01:06:37;;;;;;;0.10;0.10;;;7.50;1.00;226.50;231333.00;;;;5033322;28;20208;-72
2022/03/29 01:09:05;;;;;;;0.10;0.10;;;7.50;1.00;226.50;231333.00;;;;5036846;28;20285;-72
2022/03/29 01:11:33;;;;;;;0.00;0.00;;;7.40;1.00;226.50;231333.00;;;;5032017;28;20583;-73
2022/03/29 01:14:04;;;;;;;0.10;0.10;;;7.30;1.00;226.50;231333.00;;;;5033224;28;20265;-72
2022/03/29 01:19:22;;;;;;;0.10;0.10;;;7.20;6.00;226.50;231333.00;;;;5029198;28;20199;-72
2022/03/29 01:21:57;;;;;;;0.05;0.05;;;7.30;1.00;226.50;231333.00;;;;5028726;28;20241;-72
2022/03/29 01:24:27;;;;;;;0.00;0.00;;;7.40;16.40;226.50;231333.00;;;;5031497;28;20237;-72
2022/03/29 01:26:59;;;;;;;0.10;0.10;;;7.40;25.40;226.50;231333.00;;;;5030418;28;20215;-72
2022/03/29 01:29:30;;;;;;;0.10;0.10;;;7.50;37.40;226.50;231333.00;;;;5028610;28;20211;-72
2022/03/29 01:31:59;;;;;;;0.10;0.10;;;7.70;22.50;226.50;231333.00;;;;5030877;28;20569;-72
2022/03/29 01:34:28;;;;;;;0.10;0.10;;;7.70;1.00;226.50;231333.00;;;;5028389;28;20223;-72
2022/03/29 01:36:58;;;;;;;0.00;0.00;;;7.60;1.00;226.50;231333.00;;;;5031112;28;20203;-72
2022/03/29 01:39:26;;;;;;;0.00;0.00;;;7.50;5.50;226.50;231333.00;;;;5030243;28;20562;-72
2022/03/29 01:41:54;;;;;;;0.10;0.10;;;7.40;19.80;226.50;231333.00;;;;5030983;28;20191;-73
2022/03/29 01:44:22;;;;;;;0.10;0.10;;;7.40;1.00;226.50;231333.00;;;;5030055;28;20219;-72
2022/03/29 01:46:50;;;;;;;0.00;0.00;;;7.20;51.20;226.50;231333.00;;;;5029619;28;20645;-72
2022/03/29 01:49:19;;;;;;;0.10;0.10;;;7.20;81.60;226.50;231333.00;;;;5028093;28;20191;-71
2022/03/29 01:51:47;;;;;;;0.10;0.10;;;7.30;85.90;226.50;231333.00;;;;5028784;28;20206;-71
2022/03/29 01:54:16;;;;;;;0.10;0.10;;;7.20;66.90;226.50;231333.00;;;;5028996;28;20833;-71
2022/03/29 01:56:44;;;;;;;0.05;0.05;;;7.10;83.60;226.50;231333.00;;;;5029995;28;20195;-71
2022/03/29 01:59:12;;;;;;;0.00;0.00;;;7.20;96.70;226.50;231333.00;;;;5030132;28;20199;-71
2022/03/29 02:01:42;;;;;;;0.10;0.10;;;7.10;91.80;226.50;231333.00;;;;5030574;28;20211;-71
2022/03/29 02:04:12;;;;;;;0.10;0.10;;;7.20;95.20;226.50;231333.00;;;;5031098;28;20227;-72
2022/03/29 02:06:40;;;;;;;0.10;0.10;;;7.30;38.30;226.50;231333.00;;;;5031728;28;20214;-71
2022/03/29 02:09:10;;;;;;;0.00;0.00;;;7.30;4.30;226.50;231333.00;;;;5035493;28;20202;-71
2022/03/29 02:11:42;;;;;;;0.00;0.00;;;7.30;1.00;226.50;231333.00;;;;5035578;28;20199;-71
2022/03/29 02:14:10;;;;;;;0.10;0.10;;;7.20;1.00;226.50;231333.00;;;;5034830;28;20613;-72
2022/03/29 02:16:38;;;;;;;0.00;0.00;;;7.20;1.00;226.50;231333.00;;;;5033160;28;20203;-72
2022/03/29 02:19:06;;;;;;;0.10;0.10;;;7.20;4.90;226.50;231333.00;;;;5030742;28;20656;-72
2022/03/29 02:21:34;;;;;;;0.10;0.10;;;7.30;21.50;226.50;231333.00;;;;5030340;28;20207;-72
2022/03/29 02:24:02;;;;;;;0.10;0.10;;;7.40;13.00;226.50;231333.00;;;;5027626;28;20219;-72
2022/03/29 02:26:30;;;;;;;0.10;0.10;;;7.30;1.00;226.50;231333.00;;;;5027561;28;20219;-71
2022/03/29 02:29:00;;;;;;;0.10;0.10;;;7.20;1.00;226.50;231333.00;;;;5030482;28;20203;-72
2022/03/29 02:31:28;;;;;;;0.10;0.10;;;7.00;12.80;226.50;231333.00;;;;5030316;28;20195;-73
2022/03/29 02:33:56;;;;;;;0.10;0.10;;;6.90;99.90;226.50;231333.00;;;;5034388;28;20234;-73
2022/03/29 02:36:24;;;;;;;0.05;0.05;;;6.90;99.90;226.50;231333.00;;;;5040845;28;20715;-73
2022/03/29 02:38:52;;;;;;;0.00;0.00;;;6.80;99.90;226.50;231333.00;;;;5030222;28;20187;-73
2022/03/29 02:41:20;;;;;;;0.00;0.00;;;6.90;99.90;226.50;231333.00;;;;5031065;28;20676;-73
2022/03/29 02:43:48;;;;;;;0.10;0.10;;;7.00;99.90;226.50;231333.00;;;;5032014;28;20219;-72
2022/03/29 02:46:19;;;;;;;0.00;0.00;;;6.90;99.90;226.50;231333.00;;;;5030187;28;20581;-72
2022/03/29 02:48:47;;;;;;;0.00;0.00;;;6.70;99.90;226.50;231333.00;;;;5027312;28;20213;-72
2022/03/29 02:51:17;;;;;;;0.10;0.10;;;6.70;99.90;226.50;231333.00;;;;5028232;28;21023;-71
2022/03/29 02:53:45;;;;;;;0.10;0.10;;;6.80;99.90;226.50;231333.00;;;;5029013;28;20766;-70
2022/03/29 02:56:13;;;;;;;0.00;0.00;;;6.70;99.90;226.50;231333.00;;;;5028031;28;20539;-70
2022/03/29 02:58:41;;;;;;;0.00;0.00;;;6.70;99.90;226.50;231333.00;;;;5029357;28;20210;-70
2022/03/29 03:01:09;;;;;;;0.00;0.00;;;6.70;99.90;226.50;231333.00;;;;5029139;28;20210;-72
2022/03/29 03:03:39;;;;;;;0.00;0.00;;;6.70;99.90;226.50;231333.00;;;;5027970;28;20225;-73
2022/03/29 03:06:07;;;;;;;0.00;0.00;;;6.60;99.90;226.50;231333.00;;;;5027991;28;20230;-72
2022/03/29 03:08:35;;;;;;;0.10;0.10;;;6.70;99.90;226.50;231333.00;;;;5028935;28;20203;-71
2022/03/29 03:11:03;;;;;;;0.05;0.05;;;6.60;99.90;226.50;231333.00;;;;5029880;28;20216;-71
2022/03/29 03:13:35;;;;;;;0.10;0.10;;;6.60;99.90;226.50;231333.00;;;;5027752;28;20280;-72
2022/03/29 03:16:04;;;;;;;0.08;0.08;;;6.50;99.90;226.50;231333.00;;;;5028060;28;20202;-72
2022/03/29 03:18:32;;;;;;;0.00;0.00;;;6.50;99.90;226.50;231333.00;;;;5027026;28;20226;-72
2022/03/29 03:21:02;;;;;;;0.08;0.08;;;6.40;99.90;226.50;231333.00;;;;5028630;28;20203;-72
2022/03/29 03:23:30;;;;;;;0.10;0.10;;;6.40;99.90;226.50;231333.00;;;;5027275;28;20903;-72
2022/03/29 03:25:58;;;;;;;0.10;0.10;;;6.50;99.90;226.50;231333.00;;;;5028554;28;20199;-72
2022/03/29 03:28:26;;;;;;;0.10;0.10;;;6.50;99.90;226.50;231333.00;;;;5027821;28;20282;-72
2022/03/29 03:30:54;;;;;;;0.10;0.10;;;6.50;99.90;226.50;231333.00;;;;5029146;28;20198;-71
2022/03/29 03:33:22;;;;;;;0.10;0.10;;;6.50;99.90;226.50;231333.00;;;;5028886;28;20214;-74
2022/03/29 03:35:50;;;;;;;0.10;0.10;;;6.40;99.90;226.50;231333.00;;;;5027655;28;20214;-74
2022/03/29 03:38:20;;;;;;;0.10;0.10;;;6.30;99.90;226.50;231333.00;;;;5028629;28;20199;-77
2022/03/29 03:40:48;;;;;;;0.10;0.10;;;6.20;99.90;226.50;231333.00;;;;5029327;28;20191;-78
2022/03/29 03:43:16;;;;;;;0.10;0.10;;;6.10;99.90;226.50;231333.00;;;;5030957;28;20227;-77
2022/03/29 03:45:44;;;;;;;0.10;0.10;;;6.20;99.90;226.50;231333.00;;;;5030025;28;20183;-76
2022/03/29 03:48:12;;;;;;;0.00;0.00;;;6.20;99.90;226.50;231333.00;;;;5028812;28;20218;-74
2022/03/29 03:50:40;;;;;;;0.10;0.10;;;6.30;99.90;226.50;231333.00;;;;5028445;28;20588;-73
2022/03/29 03:53:08;;;;;;;0.00;0.00;;;6.20;99.90;226.50;231333.00;;;;5027856;28;20211;-73
2022/03/29 03:55:37;;;;;;;0.10;0.10;;;6.20;99.90;226.50;231333.00;;;;5025100;28;20215;-72
2022/03/29 03:58:06;;;;;;;0.10;0.10;;;6.10;99.90;226.50;231333.00;;;;5028078;28;20554;-75
2022/03/29 04:00:34;;;;;;;0.10;0.10;;;6.00;99.90;226.50;231333.00;;;;5029215;28;20206;-73
2022/03/29 04:03:04;;;;;;;0.10;0.10;;;5.90;99.90;226.50;231333.00;;;;5028587;28;20582;-73
2022/03/29 04:05:34;;;;;;;0.10;0.10;;;6.00;99.90;226.50;231333.00;;;;5029127;28;20190;-75
2022/03/29 04:08:02;;;;;;;0.10;0.10;;;6.10;99.90;226.50;231333.00;;;;5048767;28;20215;-73
2022/03/29 04:10:31;;;;;;;0.10;0.10;;;6.00;99.90;226.50;231333.00;;;;5033361;28;20199;-73
2022/03/29 04:13:01;;;;;;;0.00;0.00;;;6.00;99.90;226.50;231333.00;;;;5031332;28;20581;-73
2022/03/29 04:15:29;;;;;;;0.10;0.10;;;6.10;99.90;226.50;231333.00;;;;5027485;28;20191;-71
2022/03/29 04:18:00;;;;;;;0.00;0.00;;;6.10;99.90;226.50;231333.00;;;;5025989;28;20278;-74
2022/03/29 04:20:29;;;;;;;0.10;0.10;;;6.10;99.90;226.50;231333.00;;;;5029224;28;20198;-74
2022/03/29 04:22:57;;;;;;;0.10;0.10;;;6.10;99.90;226.50;231333.00;;;;5029292;28;20261;-74
2022/03/29 04:25:25;;;;;;;0.00;0.00;;;5.90;99.90;226.50;231333.00;;;;5024793;28;20206;-73
2022/03/29 04:27:53;;;;;;;0.10;0.10;;;5.80;99.90;226.50;231333.00;;;;5025570;28;20215;-73
2022/03/29 04:30:23;;;;;;;0.10;0.10;;;5.90;99.90;226.50;231333.00;;;;5026146;28;20191;-72
2022/03/29 04:32:50;;;;;;;0.10;0.10;;;5.80;99.90;226.50;231333.00;;;;5026975;28;20749;-73
2022/03/29 04:35:19;;;;;;;0.10;0.10;;;5.70;99.90;226.50;231333.00;;;;5026348;28;20213;-73
2022/03/29 04:37:47;;;;;;;0.10;0.10;;;5.70;99.90;226.50;231333.00;;;;5025705;28;20199;-73
2022/03/29 04:40:15;;;;;;;0.00;0.00;;;5.80;99.90;226.50;231333.00;;;;5027509;28;20214;-74
2022/03/29 04:42:45;;;;;;;0.10;0.10;;;5.80;99.90;226.50;231333.00;;;;5028358;28;20293;-73
2022/03/29 04:45:14;;;;;;;0.10;0.10;;;5.70;99.90;226.50;231333.00;;;;5028661;28;20217;-74
2022/03/29 04:47:45;;;;;;;0.10;0.10;;;5.60;99.90;226.50;231333.00;;;;5030389;28;20221;-70
2022/03/29 04:50:16;;;;;;;0.10;0.10;;;5.70;99.90;226.50;231333.00;;;;5032219;28;20473;-71
2022/03/29 04:52:46;;;;;;;0.10;0.10;;;5.80;99.90;226.50;231333.00;;;;5030373;28;20238;-71
2022/03/29 04:55:15;;;;;;;0.00;0.00;;;5.80;99.90;226.50;231333.00;;;;5029548;28;20728;-71
2022/03/29 04:57:47;;;;;;;0.10;0.10;;;5.80;99.90;226.50;231333.00;;;;5030557;28;20708;-71
2022/03/29 05:00:20;;;;;;;0.00;0.00;;;5.80;99.90;226.50;231333.00;;;;5036749;28;20274;-71
2022/03/29 05:02:50;;;;;;;0.10;0.10;;;5.80;99.90;226.50;231333.00;;;;5034356;28;20238;-73
2022/03/29 05:05:19;;;;;;;0.10;0.10;;;5.80;99.90;226.50;231333.00;;;;5037587;28;20191;-72
2022/03/29 05:07:47;;;;;;;0.10;0.10;;;5.80;99.90;226.50;231333.00;;;;5036485;28;20223;-72
2022/03/29 05:10:21;;;;;;;0.10;0.10;;;5.80;99.90;226.50;231333.00;;;;5042505;28;20567;-73
2022/03/29 05:12:52;;;;;;;0.10;0.10;;;5.90;99.90;226.50;231333.00;;;;5036680;28;20438;-72
2022/03/29 05:15:22;;;;;;;0.10;0.10;;;5.90;99.90;226.50;231333.00;;;;5031240;28;20194;-72
2022/03/29 05:17:51;;;;;;;0.10;0.10;;;6.00;99.90;226.50;231333.00;;;;5030485;28;20197;-71
2022/03/29 05:20:20;;;;;;;0.03;0.03;;;6.10;99.90;226.50;231333.00;;;;5028059;28;20653;-70
2022/03/29 05:22:51;;;;;;;0.10;0.10;;;6.20;99.90;226.50;231333.00;;;;5029953;28;20223;-71
2022/03/29 05:25:22;;;;;;;0.00;0.00;;;6.20;99.90;226.50;231333.00;;;;5029307;28;20241;-70
2022/03/29 05:27:50;;;;;;;0.10;0.10;;;6.10;99.90;226.50;231333.00;;;;5028502;28;20225;-70
2022/03/29 05:30:21;;;;;;;0.10;0.10;;;6.20;99.90;226.50;231333.00;;;;5031274;28;20668;-71
2022/03/29 05:32:51;;;;;;;0.08;0.08;;;6.10;99.90;226.50;231333.00;;;;5030937;28;20246;-70
2022/03/29 05:35:20;;;;;;;0.10;0.10;;;6.10;99.90;226.50;231333.00;;;;5028582;28;20640;-70
2022/03/29 05:37:48;;;;;;;0.10;0.10;;;6.00;99.90;226.50;231333.00;;;;5029291;28;20577;-70
2022/03/29 05:40:16;;;;;;;0.10;0.10;;;6.00;99.90;226.50;231333.00;;;;5029160;28;20203;-70
2022/03/29 05:42:45;;;;;;;0.10;0.10;;;6.00;99.90;226.50;231333.00;;;;5029056;28;20643;-70
2022/03/29 05:45:14;;;;;;;0.10;0.10;;;6.10;99.90;226.50;231333.00;;;;5029767;28;20195;-70
2022/03/29 05:50:31;;;;;;;0.10;0.10;;;6.10;99.90;226.50;231333.00;;;;5030294;28;20218;-70
2022/03/29 05:53:01;;;;;;;0.10;0.10;;;6.20;99.90;226.50;231333.00;;;;5029605;28;20699;-70
2022/03/29 05:55:30;;;;;;;0.10;0.10;;;6.40;99.90;226.50;231333.00;;;;5031116;28;20207;-70
2022/03/29 05:57:58;;;;;;;0.03;0.03;;;6.50;99.90;226.50;231333.00;;;;5029796;28;20198;-71
2022/03/29 06:00:29;;;;;;;0.08;0.08;;;6.60;99.90;226.50;231333.00;;;;5030653;28;20696;-70
2022/03/29 06:02:58;;;;;;;0.10;0.10;;;6.80;99.90;226.50;231333.00;;;;5029243;28;20207;-71
2022/03/29 06:05:27;;;;;;;0.10;0.10;;;6.90;99.90;226.50;231333.00;;;;5030272;28;20198;-70
2022/03/29 06:07:59;;;;;;;0.10;0.10;;;6.90;99.90;226.50;231333.00;;;;5029992;28;20582;-72
2022/03/29 06:10:27;;;;;;;0.10;0.10;;;7.00;99.90;226.50;231333.00;;;;5031298;28;20207;-71
2022/03/29 06:12:55;;;;;;;0.10;0.10;;;7.10;99.90;226.50;231333.00;;;;5028971;28;20229;-71
2022/03/29 06:15:23;;;;;;;0.00;0.00;;;7.20;99.90;226.50;231333.00;;;;5028950;28;20937;-70
2022/03/29 06:17:51;;;;;;;0.10;0.10;;;7.30;99.90;226.50;231333.00;;;;5027020;28;21362;-71
2022/03/29 06:20:19;;;;;;;0.00;0.00;;;7.30;99.90;226.50;231333.00;;;;5030847;28;20195;-71
2022/03/29 06:22:47;;;;;;;0.10;0.10;;;7.20;99.90;226.50;231333.00;;;;5044250;28;20587;-71
2022/03/29 06:25:17;;;;;;;0.00;0.00;;;7.10;99.90;226.50;231333.00;;;;5028859;28;20762;-70
2022/03/29 06:27:45;;;;;;;0.10;0.10;;;6.90;99.90;226.50;231333.00;;;;5030146;28;20615;-71
2022/03/29 06:30:14;;;;;;;0.00;0.00;;;7.00;99.90;226.50;231333.00;;;;5028131;28;20210;-70
2022/03/29 06:32:47;;;;;;;0.00;0.00;;;6.80;99.90;226.50;231333.00;;;;5027895;28;20703;-71
2022/03/29 06:35:18;;;;;;;0.10;0.10;;;6.80;99.90;226.50;231333.00;;;;5027949;28;20210;-70
2022/03/29 06:37:46;;;;;;;0.10;0.10;;;6.80;99.90;226.50;231333.00;;;;5026312;28;20211;-71
2022/03/29 06:40:15;;;;;;;0.10;0.10;;;6.80;99.90;226.50;231333.00;;;;5029835;28;20580;-71
2022/03/29 06:42:45;;;;;;;0.10;0.10;;;6.80;99.90;226.50;231333.00;;;;5027735;28;20215;-71
2022/03/29 06:45:13;;;;;;;0.10;0.10;;;6.80;99.90;226.50;231333.00;;;;5026449;28;20586;-71
2022/03/29 06:47:41;;;;;;;0.10;0.10;;;6.90;99.90;226.50;231333.00;;;;5029340;28;20205;-71
2022/03/29 06:50:10;;;;;;;0.10;0.10;;;7.10;99.90;226.50;231333.00;;;;5029758;28;20242;-71
2022/03/29 06:52:42;;;;;;;0.10;0.10;;;7.30;99.90;226.50;231333.00;;;;5029769;28;20206;-71
2022/03/29 06:55:13;;;;;;;0.10;0.10;;;7.50;99.90;226.50;231333.00;;;;5029050;28;20195;-71
2022/03/29 06:57:43;;;;;;;0.10;0.10;;;7.60;99.90;226.50;231333.00;;;;5028222;28;20206;-71
2022/03/29 07:00:13;;;;;;;0.10;0.10;;;7.80;99.90;226.50;231333.00;;;;5028792;28;20578;-71
2022/03/29 07:02:41;;;;;;;0.00;0.00;;;7.80;99.90;226.50;231333.00;;;;5028336;28;20536;-71
2022/03/29 07:05:10;;;;;;;0.00;0.00;;;8.00;99.90;226.50;231333.00;;;;5028634;28;20199;-71
2022/03/29 07:07:38;;;;;;;0.10;0.10;;;8.00;99.90;226.50;231333.00;;;;5027654;28;20199;-71
2022/03/29 07:12:59;;;;;;;0.10;0.10;;;8.20;99.90;226.50;231333.00;;;;5026353;28;20230;-71
2022/03/29 07:15:27;;;;;;;0.05;0.05;;;8.40;72.60;226.50;231333.00;;;;5036691;28;20204;-71
2022/03/29 07:17:57;;;;;;;0.10;0.10;;;8.50;48.50;226.50;231333.00;;;;5023741;28;20195;-73
2022/03/29 07:20:26;;;;;;;0.10;0.10;;;8.50;36.10;226.50;231333.00;;;;5026691;28;20187;-71
2022/03/29 07:22:54;;;;;;;0.00;0.00;;;8.60;36.90;226.50;231333.00;;;;5026605;28;20215;-72
2022/03/29 07:25:25;;;;;;;0.10;0.10;;;8.70;48.80;226.50;231333.00;;;;5027120;28;20736;-71
2022/03/29 07:27:55;;;;;;;0.10;0.10;;;8.80;22.00;226.50;231333.00;;;;5029547;28;20314;-71
2022/03/29 07:30:24;;;;;;;0.00;0.00;;;8.80;1.00;226.50;231333.00;;;;5028753;28;20210;-71
2022/03/29 07:32:54;;;;;;;0.10;0.10;;;8.90;1.00;226.50;231333.00;;;;5029097;28;20611;-71
2022/03/29 07:35:25;;;;;;;0.00;0.00;;;9.00;1.00;226.50;231333.00;;;;5029182;28;20201;-71
2022/03/29 07:37:53;;;;;;;0.00;0.00;;;9.00;1.00;226.50;231333.00;;;;5027507;28;20890;-71
2022/03/29 07:40:24;;;;;;;0.00;0.00;;;9.10;1.00;226.50;231333.00;;;;5031392;28;20218;-71
2022/03/29 07:42:53;;;;;;;0.00;0.00;;;9.10;1.00;226.50;231333.00;;;;5028973;28;20268;-71
2022/03/29 07:45:24;;;;;;;0.00;0.00;;;9.10;1.00;226.50;231333.00;;;;5030339;28;20206;-72
2022/03/29 07:47:55;;;;;;;0.08;0.08;;;9.20;1.00;226.50;231333.00;;;;5045653;28;20203;-72
2022/03/29 07:50:44;;;;;;;0.00;0.00;;;9.30;1.00;226.50;231333.00;;;;5026263;28;20227;-71
2022/03/29 07:53:12;;;;;;;0.00;0.00;;;9.30;1.00;226.50;231333.00;;;;5031361;28;20219;-72
2022/03/29 07:55:40;;;;;;;0.00;0.00;;;9.30;1.00;226.50;231333.00;;;;5028636;28;20199;-71
2022/03/29 07:58:19;;;;;;;0.10;0.10;;;9.40;1.00;226.50;231333.00;;;;5029070;28;20199;-72
2022/03/29 08:00:53;;;;;;;0.10;0.10;;;9.40;1.00;226.50;231333.00;;;;5028119;28;20195;-72
2022/03/29 08:03:22;;;;;;;0.10;0.10;;;9.50;1.00;226.50;231333.00;;;;5028918;28;20738;-72
2022/03/29 08:05:54;;;;;;;0.10;0.10;;;9.50;1.00;226.50;231333.00;;;;5029926;28;20278;-72
2022/03/29 08:08:22;;;;;;;0.10;0.10;;;9.50;1.00;226.50;231333.00;;;;5028805;28;20217;-72
2022/03/29 08:10:50;;;;;;;0.10;0.10;;;9.50;1.00;226.50;231333.00;;;;5029033;28;20226;-71
2022/03/29 08:13:20;;;;;;;0.10;0.10;;;9.50;1.00;226.50;231333.00;;;;5027864;28;20273;-72
2022/03/29 08:15:53;;;;;;;0.10;0.10;;;9.50;1.00;226.50;231333.00;;;;5029685;28;20202;-72
2022/03/29 08:18:21;;;;;;;0.00;0.00;;;9.50;1.00;226.50;231333.00;;;;5033831;28;20255;-71
2022/03/29 08:20:49;;;;;;;0.10;0.10;;;9.50;1.00;226.50;231333.00;;;;5035555;28;20203;-70
2022/03/29 08:23:18;;;;;;;0.10;0.10;;;9.50;1.00;226.50;231333.00;;;;5043162;28;20207;-71
2022/03/29 08:25:46;;;;;;;0.10;0.10;;;9.50;1.00;226.50;231333.00;;;;5039525;28;20203;-71
2022/03/29 08:28:16;;;;;;;0.10;0.10;;;9.50;1.00;226.50;231333.00;;;;5037884;28;20195;-72
2022/03/29 08:30:45;;;;;;;0.10;0.10;;;9.50;1.00;226.50;231333.00;;;;5037992;28;20234;-72
2022/03/29 08:33:14;;;;;;;0.10;0.10;;;9.60;1.00;226.50;231333.00;;;;5035671;28;20612;-71
2022/03/29 08:35:44;;;;;;;0.10;0.10;;;9.60;1.00;226.50;231333.00;;;;5036059;28;20683;-72
2022/03/29 08:38:13;;;;;;;0.10;0.10;;;9.60;1.00;226.50;231333.00;;;;5038390;28;20284;-72
2022/03/29 08:40:58;;;;;;;0.00;0.00;;;9.60;1.00;226.50;231333.00;;;;5031983;28;20199;-71
2022/03/29 08:43:30;;;;;;;0.00;0.00;;;9.70;1.00;226.50;231333.00;;;;5033507;28;20233;-72
2022/03/29 08:46:00;;;;;;;0.10;0.10;;;9.60;1.00;226.50;231333.00;;;;5032383;28;21416;-72
2022/03/29 08:48:31;;;;;;;0.00;0.00;;;9.60;1.00;226.50;231333.00;;;;5028675;28;20274;-72
2022/03/29 08:51:04;;;;;;;0.03;0.03;;;9.60;1.00;226.50;231333.00;;;;5028338;28;20218;-72
2022/03/29 08:53:52;;;;;;;0.10;0.10;;;9.50;1.00;226.50;231333.00;;;;5031913;28;20280;-73
2022/03/29 08:56:20;;;;;;;0.10;0.10;;;9.50;1.00;226.50;231333.00;;;;5030505;28;20194;-72
2022/03/29 08:58:49;;;;;;;0.10;0.10;;;9.40;1.00;226.50;231333.00;;;;5030796;28;20214;-72
2022/03/29 09:01:19;;;;;;;0.10;0.10;;;9.50;1.00;226.50;231333.00;;;;5031524;28;20195;-72
2022/03/29 09:04:05;;;;;;;0.10;0.10;;;9.50;1.00;226.50;231333.00;;;;5032860;28;20778;-72
2022/03/29 09:06:34;;;;;;;0.10;0.10;;;9.60;1.00;226.50;231333.00;;;;5034940;28;20205;-72
2022/03/29 09:09:02;;;;;;;0.10;0.10;;;9.60;1.00;226.50;231333.00;;;;5032906;28;20195;-72
2022/03/29 09:11:41;;;;;;;0.10;0.10;;;9.70;1.00;226.50;231333.00;;;;5031266;28;20218;-72
2022/03/29 09:14:09;;;;;;;0.10;0.10;;;9.70;1.00;226.50;231333.00;;;;5032793;28;20218;-73
2022/03/29 09:16:38;;;;;;;0.03;0.03;;;9.70;1.00;226.50;231333.00;;;;5030036;28;20187;-72
2022/03/29 09:19:09;;;;;;;0.03;0.03;;;9.70;1.00;226.50;231333.00;;;;5031956;28;20191;-72
2022/03/29 09:21:43;;;;;;;0.10;0.10;;;9.70;1.00;226.50;231333.00;;;;5030768;28;20195;-73
2022/03/29 09:24:14;;;;;;;0.00;0.00;;;9.70;1.00;226.50;231333.00;;;;5030688;28;20238;-73
2022/03/29 09:26:45;;;;;;;0.10;0.10;;;9.70;1.00;226.50;231333.00;;;;5030394;28;20199;-73
2022/03/29 09:29:17;;;;;;;0.10;0.10;;;9.70;1.00;226.50;231333.00;;;;5026449;28;20651;-72
2022/03/29 09:31:50;;;;;;;0.10;0.10;;;9.70;1.00;226.50;231333.00;;;;5028067;28;20226;-72
2022/03/29 09:34:21;;;;;;;0.08;0.08;;;9.80;1.00;226.50;231333.00;;;;5030475;28;20219;-72
2022/03/29 09:36:52;;;;;;;0.10;0.10;;;9.80;1.00;226.50;231333.00;;;;5030983;28;20301;-72
2022/03/29 09:39:32;;;;;;;0.10;0.10;;;9.80;1.00;226.50;231333.00;;;;5029741;28;20563;-72
2022/03/29 09:42:04;;;;;;;0.10;0.10;;;9.80;1.00;226.50;231333.00;;;;5028931;28;20202;-72
2022/03/29 09:44:41;;;;;;;0.10;0.10;;;9.80;1.00;226.50;231333.00;;;;5039219;28;20276;-72
2022/03/29 09:47:13;;;;;;;0.10;0.10;;;9.70;1.00;226.50;231333.00;;;;5031083;28;20206;-73
2022/03/29 09:49:55;;;;;;;0.10;0.10;;;9.60;1.00;226.50;231333.00;;;;5030605;28;20191;-71
2022/03/29 09:52:26;;;;;;;0.10;0.10;;;9.50;1.00;226.50;231333.00;;;;5030315;28;20214;-70
2022/03/29 09:55:14;;;;;;;0.10;0.10;;;9.70;1.00;226.50;231333.00;;;;5031407;28;20194;-71
2022/03/29 09:57:46;;;;;;;0.10;0.10;;;9.80;1.00;226.50;231333.00;;;;5029668;28;20191;-71
2022/03/29 10:00:18;;;;;;;0.10;0.10;;;9.90;1.00;226.50;231333.00;;;;5030309;28;20203;-72
2022/03/29 10:02:47;;;;;;;0.10;0.10;;;10.00;1.00;226.50;231333.00;;;;5030569;28;20223;-71
2022/03/29 10:05:20;;;;;;;0.10;0.10;;;9.90;1.00;226.50;231333.00;;;;5030939;28;20195;-70
2022/03/29 10:09:25;;;;;;;0.05;0.05;;;9.70;1.00;226.50;231333.00;;;;5030276;28;20187;-71
2022/03/29 10:10:46;;;;;;;0.10;0.10;;;9.50;1.00;226.50;231333.00;;;;5030548;28;20333;-71
2022/03/29 10:13:17;;;;;;;0.10;0.10;;;9.80;1.00;226.50;231333.00;;;;5029765;28;20211;-70
2022/03/29 10:15:46;;;;;;;0.00;0.00;;;10.00;1.00;226.50;231333.00;;;;5031296;28;20203;-71
2022/03/29 10:18:15;;;;;;;0.00;0.00;;;10.10;1.00;226.50;231333.00;;;;5029962;28;20257;-70
2022/03/29 10:20:45;;;;;;;0.10;0.10;;;10.20;1.00;226.50;231333.00;;;;5030345;28;20210;-71
2022/03/29 10:23:14;;;;;;;0.10;0.10;;;10.20;99.90;226.50;231333.00;;;;5027123;28;20229;-70
2022/03/29 10:25:43;;;;;;;0.10;0.10;;;10.20;99.90;226.50;231333.00;;;;5030784;28;20192;-72
2022/03/29 10:28:12;;;;;;;0.08;0.08;;;10.20;99.90;226.50;231333.00;;;;5031096;28;20194;-72
2022/03/29 10:30:42;;;;;;;0.10;0.10;;;10.10;99.90;226.50;231333.00;;;;5032125;28;20573;-71
2022/03/29 10:33:19;;;;;;;0.05;0.05;;;10.20;99.90;226.50;231333.00;;;;5031934;28;20212;-72
2022/03/29 10:36:10;;;;;;;0.10;0.10;;;10.50;99.90;226.50;231333.00;;;;5032426;28;20230;-72
2022/03/29 10:38:59;;;;;;;0.03;0.03;;;10.80;8.70;226.50;231333.00;;;;5032304;28;20202;-72
2022/03/29 10:41:52;;;;;;;0.10;0.10;;;11.00;1.00;226.50;231333.00;;;;5029867;28;20201;-70
2022/03/29 10:44:21;;;;;;;0.00;0.00;;;11.20;1.00;226.50;231333.00;;;;5028927;28;20297;-73
2022/03/29 10:46:52;;;;;;;0.10;0.10;;;11.00;99.90;226.50;231333.00;;;;5030516;28;20194;-70
2022/03/29 10:49:25;;;;;;;0.10;0.10;;;11.10;99.90;226.50;231333.00;;;;5030807;28;20187;-70
2022/03/29 10:51:58;;;;;;;0.00;0.00;;;11.40;99.90;226.50;231333.00;;;;5027372;28;20222;-70
2022/03/29 10:54:32;;;;;;;0.10;0.10;;;11.50;1.00;226.50;231333.00;;;;5027496;28;20767;-73
2022/03/29 10:57:04;;;;;;;0.05;0.05;;;11.60;1.00;226.50;231333.00;;;;5027527;28;20217;-73
2022/03/29 10:59:34;;;;;;;0.10;0.10;;;11.60;1.00;226.50;231333.00;;;;5028102;28;20218;-70
2022/03/29 11:02:16;;;;;;;0.10;0.10;;;11.70;99.90;226.50;231333.00;;;;5029528;28;20211;-70
2022/03/29 11:05:06;;;;;;;0.10;0.10;;;11.90;1.00;226.50;231333.00;;;;5030008;28;20215;-71
2022/03/29 11:07:37;;;;;;;0.10;0.10;;;12.10;99.90;226.50;231333.00;;;;5027798;28;20195;-69
2022/03/29 11:10:16;;;;;;;0.10;0.10;;;12.40;1.00;226.50;231333.00;;;;5028472;28;20215;-70
2022/03/29 11:12:49;;;;;;;0.08;0.08;;;12.60;77.30;226.50;231333.00;;;;5029876;28;20238;-73